createdAt,value
2018-05-03T00:00:38.623Z,0.00
2018-05-03T00:01:38.649Z,0.00
2018-05-03T00:02:38.669Z,0.00
2018-05-03T00:03:38.692Z,0.00
2018-05-03T00:04:38.717Z,0.00
2018-05-03T00:05:38.743Z,0.00
2018-05-03T00:06:38.762Z,0.00
2018-05-03T00:07:38.788Z,0.00
2018-05-03T00:08:38.810Z,0.00
2018-05-03T00:09:38.841Z,0.00
2018-05-03T00:10:38.860Z,0.00
2018-05-03T00:11:38.880Z,0.00
2018-05-03T00:12:38.907Z,0.00
2018-05-03T00:13:38.932Z,0.00
2018-05-03T00:14:38.956Z,0.00
2018-05-03T00:15:38.982Z,0.00
2018-05-03T00:16:38.997Z,0.00
2018-05-03T00:17:39.028Z,0.00
2018-05-03T00:18:39.050Z,0.00
2018-05-03T00:19:39.076Z,0.00
2018-05-03T00:20:39.185Z,0.00
2018-05-03T00:21:39.116Z,0.00
2018-05-03T00:22:39.146Z,0.00
2018-05-03T00:23:39.169Z,0.00
2018-05-03T00:24:39.191Z,0.00
2018-05-03T00:25:39.218Z,0.00
2018-05-03T00:26:39.242Z,0.00
2018-05-03T00:27:39.272Z,0.00
2018-05-03T00:28:39.282Z,0.00
2018-05-03T00:29:39.307Z,0.00
2018-05-03T00:30:39.332Z,0.00
2018-05-03T00:31:39.358Z,0.00
2018-05-03T00:32:39.378Z,0.00
2018-05-03T00:33:39.401Z,0.00
2018-05-03T00:34:39.427Z,0.00
2018-05-03T00:35:39.449Z,0.00
2018-05-03T00:36:39.475Z,0.00
2018-05-03T00:37:39.501Z,0.00
2018-05-03T00:38:39.519Z,0.00
2018-05-03T00:39:39.545Z,0.00
2018-05-03T00:40:39.566Z,0.00
2018-05-03T00:41:39.593Z,0.00
2018-05-03T00:42:39.611Z,0.00
2018-05-03T00:43:39.641Z,0.00
2018-05-03T00:44:39.660Z,0.00
2018-05-03T00:45:39.686Z,0.00
2018-05-03T00:46:39.705Z,0.00
2018-05-03T00:47:39.731Z,0.00
2018-05-03T00:48:39.756Z,0.00
2018-05-03T00:49:39.780Z,0.00
2018-05-03T00:50:39.798Z,0.00
2018-05-03T00:51:39.828Z,0.00
2018-05-03T00:52:39.845Z,0.00
2018-05-03T00:53:39.869Z,0.00
2018-05-03T00:54:39.894Z,0.00
2018-05-03T00:55:39.923Z,0.00
2018-05-03T00:56:39.941Z,0.00
2018-05-03T00:57:39.965Z,0.00
2018-05-03T00:58:39.990Z,0.00
2018-05-03T00:59:40.015Z,0.00
2018-05-03T01:00:40.039Z,0.00
2018-05-03T01:01:40.065Z,0.00
2018-05-03T01:02:40.092Z,0.00
2018-05-03T01:03:40.104Z,0.00
2018-05-03T01:04:40.136Z,0.00
2018-05-03T01:05:40.153Z,0.00
2018-05-03T01:06:40.173Z,0.00
2018-05-03T01:07:40.202Z,0.00
2018-05-03T01:08:40.224Z,0.00
2018-05-03T01:09:40.252Z,0.00
2018-05-03T01:10:40.271Z,0.00
2018-05-03T01:11:40.296Z,0.00
2018-05-03T01:12:40.318Z,0.00
2018-05-03T01:13:40.338Z,0.00
2018-05-03T01:14:40.362Z,0.00
2018-05-03T01:15:40.390Z,0.00
2018-05-03T01:16:40.409Z,0.00
2018-05-03T01:17:40.437Z,0.00
2018-05-03T01:18:40.454Z,0.00
2018-05-03T01:19:40.478Z,0.00
2018-05-03T01:20:40.506Z,0.00
2018-05-03T01:21:40.529Z,0.00
2018-05-03T01:22:40.553Z,0.00
2018-05-03T01:23:40.575Z,0.00
2018-05-03T01:24:40.596Z,0.00
2018-05-03T01:25:40.623Z,0.00
2018-05-03T01:26:40.652Z,0.00
2018-05-03T01:27:40.666Z,0.00
2018-05-03T01:28:40.690Z,0.00
2018-05-03T01:29:40.716Z,0.00
2018-05-03T01:30:40.741Z,0.00
2018-05-03T01:31:40.760Z,0.00
2018-05-03T01:32:40.782Z,0.00
2018-05-03T01:33:40.807Z,0.00
2018-05-03T01:34:40.829Z,0.00
2018-05-03T01:35:40.876Z,0.00
2018-05-03T01:36:40.877Z,0.00
2018-05-03T01:37:40.897Z,0.00
2018-05-03T01:38:40.923Z,0.00
2018-05-03T01:39:40.942Z,0.00
2018-05-03T01:40:40.967Z,0.00
2018-05-03T01:41:40.994Z,0.00
2018-05-03T01:42:41.013Z,0.00
2018-05-03T01:43:41.042Z,0.00
2018-05-03T01:44:41.064Z,0.00
2018-05-03T01:45:41.082Z,0.00
2018-05-03T01:46:41.113Z,0.00
2018-05-03T01:47:41.127Z,0.00
2018-05-03T01:48:41.153Z,0.00
2018-05-03T01:49:41.177Z,0.00
2018-05-03T01:50:41.198Z,0.00
2018-05-03T01:51:41.222Z,0.00
2018-05-03T01:52:41.248Z,0.00
2018-05-03T01:53:41.276Z,0.00
2018-05-03T01:54:41.291Z,0.00
2018-05-03T01:55:41.316Z,0.00
2018-05-03T01:56:41.340Z,0.00
2018-05-03T01:57:41.366Z,0.00
2018-05-03T01:58:41.386Z,0.00
2018-05-03T01:59:41.410Z,0.00
2018-05-03T02:00:41.431Z,0.00
2018-05-03T02:01:41.457Z,0.00
2018-05-03T02:02:41.476Z,0.00
2018-05-03T02:03:41.501Z,0.00
2018-05-03T02:04:41.529Z,0.00
2018-05-03T02:05:41.546Z,0.00
2018-05-03T02:06:41.565Z,0.00
2018-05-03T02:07:41.593Z,0.00
2018-05-03T02:08:41.619Z,0.00
2018-05-03T02:09:41.638Z,0.00
2018-05-03T02:10:41.662Z,0.00
2018-05-03T02:11:41.683Z,0.00
2018-05-03T02:12:41.708Z,0.00
2018-05-03T02:13:41.734Z,0.00
2018-05-03T02:14:41.757Z,0.00
2018-05-03T02:15:41.776Z,0.00
2018-05-03T02:16:41.801Z,0.00
2018-05-03T02:17:41.825Z,0.00
2018-05-03T02:18:41.849Z,0.00
2018-05-03T02:19:41.873Z,0.00
2018-05-03T02:20:41.895Z,0.00
2018-05-03T02:21:41.915Z,0.00
2018-05-03T02:22:41.939Z,0.00
2018-05-03T02:23:41.964Z,0.00
2018-05-03T02:24:41.983Z,0.00
2018-05-03T02:25:42.011Z,0.00
2018-05-03T02:26:42.033Z,0.00
2018-05-03T02:27:42.051Z,0.00
2018-05-03T02:28:42.075Z,0.00
2018-05-03T02:29:42.095Z,0.00
2018-05-03T02:30:42.125Z,0.00
2018-05-03T02:31:42.146Z,0.00
2018-05-03T02:32:42.172Z,0.00
2018-05-03T02:33:42.194Z,0.00
2018-05-03T02:34:42.215Z,0.00
2018-05-03T02:35:42.242Z,0.00
2018-05-03T02:36:42.260Z,0.00
2018-05-03T02:37:42.283Z,0.00
2018-05-03T02:38:42.307Z,0.00
2018-05-03T02:39:42.342Z,0.00
2018-05-03T02:40:42.354Z,0.00
2018-05-03T02:41:42.374Z,0.00
2018-05-03T02:42:42.399Z,0.00
2018-05-03T02:43:42.425Z,0.00
2018-05-03T02:44:42.453Z,0.00
2018-05-03T02:45:42.469Z,0.00
2018-05-03T02:46:42.498Z,0.00
2018-05-03T02:47:42.511Z,0.00
2018-05-03T02:48:42.535Z,0.00
2018-05-03T02:49:42.564Z,0.00
2018-05-03T02:50:42.579Z,0.00
2018-05-03T02:51:42.605Z,0.00
2018-05-03T02:52:42.631Z,0.00
2018-05-03T02:53:42.650Z,0.00
2018-05-03T02:54:42.671Z,0.00
2018-05-03T02:55:42.695Z,0.00
2018-05-03T02:56:42.715Z,0.00
2018-05-03T02:57:42.740Z,0.00
2018-05-03T02:58:42.764Z,0.00
2018-05-03T02:59:42.785Z,0.00
2018-05-03T03:00:42.812Z,0.00
2018-05-03T03:01:42.829Z,0.00
2018-05-03T03:02:42.856Z,0.00
2018-05-03T03:03:42.874Z,0.00
2018-05-03T03:04:42.905Z,0.00
2018-05-03T03:05:42.923Z,0.00
2018-05-03T03:06:42.945Z,0.00
2018-05-03T03:07:42.970Z,0.00
2018-05-03T03:08:42.993Z,0.00
2018-05-03T03:09:43.168Z,0.00
2018-05-03T03:10:43.049Z,0.00
2018-05-03T03:11:43.065Z,0.00
2018-05-03T03:12:43.089Z,0.00
2018-05-03T03:13:43.104Z,0.00
2018-05-03T03:14:43.133Z,0.00
2018-05-03T03:15:43.149Z,0.00
2018-05-03T03:16:43.177Z,0.00
2018-05-03T03:17:43.194Z,0.00
2018-05-03T03:18:43.223Z,0.00
2018-05-03T03:19:43.246Z,0.00
2018-05-03T03:20:43.262Z,0.00
2018-05-03T03:21:43.289Z,0.00
2018-05-03T03:22:43.312Z,0.00
2018-05-03T03:23:43.336Z,0.00
2018-05-03T03:24:43.356Z,0.00
2018-05-03T03:25:43.378Z,0.00
2018-05-03T03:26:43.402Z,0.00
2018-05-03T03:27:43.423Z,0.00
2018-05-03T03:28:43.448Z,0.00
2018-05-03T03:29:43.474Z,0.00
2018-05-03T03:30:43.492Z,0.00
2018-05-03T03:31:43.512Z,0.00
2018-05-03T03:32:43.533Z,0.00
2018-05-03T03:33:43.559Z,0.00
2018-05-03T03:34:43.583Z,5.63
2018-05-03T03:35:43.602Z,5.63
2018-05-03T03:36:43.636Z,5.63
2018-05-03T03:37:43.650Z,5.63
2018-05-03T03:38:43.676Z,5.63
2018-05-03T03:39:43.697Z,5.63
2018-05-03T03:40:43.722Z,5.63
2018-05-03T03:41:43.737Z,5.63
2018-05-03T03:42:43.767Z,11.25
2018-05-03T03:43:43.786Z,11.25
2018-05-03T03:44:43.810Z,11.25
2018-05-03T03:45:43.828Z,11.25
2018-05-03T03:46:43.852Z,11.25
2018-05-03T03:47:43.870Z,16.88
2018-05-03T03:48:43.900Z,16.88
2018-05-03T03:49:43.922Z,16.88
2018-05-03T03:50:43.949Z,22.50
2018-05-03T03:51:43.961Z,22.50
2018-05-03T03:52:43.984Z,22.50
2018-05-03T03:53:44.011Z,28.13
2018-05-03T03:54:44.034Z,28.13
2018-05-03T03:55:44.056Z,28.13
2018-05-03T03:56:44.079Z,33.75
2018-05-03T03:57:44.098Z,33.75
2018-05-03T03:58:44.124Z,39.38
2018-05-03T03:59:44.150Z,39.38
2018-05-03T04:00:44.168Z,45.00
2018-05-03T04:01:44.191Z,45.00
2018-05-03T04:02:44.215Z,50.63
2018-05-03T04:03:44.232Z,50.63
2018-05-03T04:04:44.255Z,56.25
2018-05-03T04:05:44.279Z,56.25
2018-05-03T04:06:44.307Z,56.25
2018-05-03T04:07:44.324Z,61.88
2018-05-03T04:08:44.350Z,67.50
2018-05-03T04:09:44.366Z,67.50
2018-05-03T04:10:44.394Z,73.13
2018-05-03T04:11:44.410Z,78.75
2018-05-03T04:12:44.431Z,84.38
2018-05-03T04:13:44.455Z,84.38
2018-05-03T04:14:44.479Z,90.00
2018-05-03T04:15:44.500Z,95.63
2018-05-03T04:16:44.525Z,101.25
2018-05-03T04:17:44.546Z,101.25
2018-05-03T04:18:44.570Z,101.25
2018-05-03T04:19:44.591Z,106.88
2018-05-03T04:20:44.615Z,112.50
2018-05-03T04:21:44.640Z,112.50
2018-05-03T04:22:44.660Z,118.13
2018-05-03T04:23:44.682Z,123.75
2018-05-03T04:24:44.705Z,129.38
2018-05-03T04:25:44.729Z,129.38
2018-05-03T04:26:44.754Z,140.63
2018-05-03T04:27:44.788Z,140.63
2018-05-03T04:28:44.794Z,146.25
2018-05-03T04:29:44.814Z,151.88
2018-05-03T04:30:44.839Z,151.88
2018-05-03T04:31:44.859Z,157.50
2018-05-03T04:32:44.887Z,163.13
2018-05-03T04:33:44.910Z,168.75
2018-05-03T04:34:44.924Z,168.75
2018-05-03T04:35:44.954Z,174.38
2018-05-03T04:36:44.980Z,180.00
2018-05-03T04:37:44.994Z,185.63
2018-05-03T04:38:45.020Z,185.63
2018-05-03T04:39:45.040Z,185.63
2018-05-03T04:40:45.067Z,191.25
2018-05-03T04:41:45.090Z,196.88
2018-05-03T04:42:45.110Z,202.50
2018-05-03T04:43:45.136Z,202.50
2018-05-03T04:44:45.155Z,208.13
2018-05-03T04:45:45.183Z,208.13
2018-05-03T04:46:45.200Z,213.75
2018-05-03T04:47:45.220Z,219.38
2018-05-03T04:48:45.244Z,219.38
2018-05-03T04:49:45.268Z,219.38
2018-05-03T04:50:45.289Z,225.00
2018-05-03T04:51:45.315Z,219.38
2018-05-03T04:52:45.339Z,213.75
2018-05-03T04:53:45.359Z,213.75
2018-05-03T04:54:45.389Z,208.13
2018-05-03T04:55:45.406Z,213.75
2018-05-03T04:56:45.427Z,225.00
2018-05-03T04:57:45.451Z,225.00
2018-05-03T04:58:45.473Z,213.75
2018-05-03T04:59:45.499Z,208.13
2018-05-03T05:00:45.518Z,213.75
2018-05-03T05:01:45.544Z,219.38
2018-05-03T05:02:45.565Z,225.00
2018-05-03T05:03:45.589Z,225.00
2018-05-03T05:04:45.684Z,213.75
2018-05-03T05:05:45.637Z,208.13
2018-05-03T05:06:45.668Z,208.13
2018-05-03T05:07:45.682Z,202.50
2018-05-03T05:08:45.704Z,219.38
2018-05-03T05:09:45.730Z,230.63
2018-05-03T05:10:45.751Z,230.63
2018-05-03T05:11:45.773Z,236.25
2018-05-03T05:12:45.796Z,253.13
2018-05-03T05:13:45.818Z,258.75
2018-05-03T05:14:45.837Z,253.13
2018-05-03T05:15:45.863Z,247.50
2018-05-03T05:16:45.887Z,253.13
2018-05-03T05:17:45.909Z,247.50
2018-05-03T05:18:45.934Z,258.75
2018-05-03T05:19:45.952Z,281.25
2018-05-03T05:20:45.984Z,281.25
2018-05-03T05:21:46.003Z,286.88
2018-05-03T05:22:46.026Z,281.25
2018-05-03T05:23:46.051Z,281.25
2018-05-03T05:24:46.076Z,292.50
2018-05-03T05:25:46.093Z,309.38
2018-05-03T05:26:46.120Z,326.25
2018-05-03T05:27:46.142Z,331.88
2018-05-03T05:28:46.163Z,331.88
2018-05-03T05:29:46.183Z,320.63
2018-05-03T05:30:46.284Z,337.50
2018-05-03T05:31:46.236Z,348.75
2018-05-03T05:32:46.255Z,360.00
2018-05-03T05:33:46.285Z,354.38
2018-05-03T05:34:46.304Z,343.13
2018-05-03T05:35:46.330Z,343.13
2018-05-03T05:36:46.347Z,348.75
2018-05-03T05:37:46.373Z,348.75
2018-05-03T05:38:46.402Z,354.38
2018-05-03T05:39:46.418Z,354.38
2018-05-03T05:40:46.443Z,365.63
2018-05-03T05:41:46.475Z,376.88
2018-05-03T05:42:46.488Z,393.75
2018-05-03T05:43:46.513Z,382.50
2018-05-03T05:44:46.533Z,382.50
2018-05-03T05:45:46.556Z,371.25
2018-05-03T05:46:46.578Z,371.25
2018-05-03T05:47:46.606Z,371.25
2018-05-03T05:48:46.626Z,376.88
2018-05-03T05:49:46.656Z,376.88
2018-05-03T05:50:46.673Z,382.50
2018-05-03T05:51:46.696Z,382.50
2018-05-03T05:52:46.720Z,388.13
2018-05-03T05:53:46.745Z,371.25
2018-05-03T05:54:46.765Z,371.25
2018-05-03T05:55:46.787Z,371.25
2018-05-03T05:56:46.899Z,376.88
2018-05-03T05:57:46.836Z,371.25
2018-05-03T05:58:46.859Z,371.25
2018-05-03T05:59:46.883Z,371.25
2018-05-03T06:00:46.906Z,376.88
2018-05-03T06:01:46.936Z,382.50
2018-05-03T06:02:46.950Z,388.13
2018-05-03T06:03:46.979Z,393.75
2018-05-03T06:04:47.004Z,399.38
2018-05-03T06:05:47.024Z,399.38
2018-05-03T06:06:47.049Z,405.00
2018-05-03T06:07:47.070Z,410.63
2018-05-03T06:08:47.094Z,416.25
2018-05-03T06:09:47.116Z,427.50
2018-05-03T06:10:47.150Z,433.13
2018-05-03T06:11:47.175Z,433.13
2018-05-03T06:12:47.194Z,433.13
2018-05-03T06:13:47.210Z,438.75
2018-05-03T06:14:47.240Z,444.38
2018-05-03T06:15:47.270Z,444.38
2018-05-03T06:16:47.284Z,444.38
2018-05-03T06:17:47.304Z,444.38
2018-05-03T06:18:47.330Z,450.00
2018-05-03T06:19:47.355Z,455.63
2018-05-03T06:20:47.378Z,455.63
2018-05-03T06:21:47.404Z,461.25
2018-05-03T06:22:47.432Z,472.50
2018-05-03T06:23:47.444Z,466.88
2018-05-03T06:24:47.470Z,478.13
2018-05-03T06:25:47.496Z,472.50
2018-05-03T06:26:47.516Z,472.50
2018-05-03T06:27:47.544Z,483.75
2018-05-03T06:28:47.563Z,495.00
2018-05-03T06:29:47.593Z,483.75
2018-05-03T06:30:47.610Z,483.75
2018-05-03T06:31:47.634Z,478.13
2018-05-03T06:32:47.663Z,478.13
2018-05-03T06:33:47.691Z,478.13
2018-05-03T06:34:47.704Z,489.38
2018-05-03T06:35:47.729Z,495.00
2018-05-03T06:36:47.761Z,495.00
2018-05-03T06:37:47.780Z,483.75
2018-05-03T06:38:47.811Z,478.13
2018-05-03T06:39:47.822Z,483.75
2018-05-03T06:40:47.856Z,489.38
2018-05-03T06:41:47.869Z,489.38
2018-05-03T06:42:47.899Z,489.38
2018-05-03T06:43:47.918Z,483.75
2018-05-03T06:44:47.944Z,489.38
2018-05-03T06:45:47.968Z,495.00
2018-05-03T06:46:47.988Z,506.25
2018-05-03T06:47:48.017Z,500.63
2018-05-03T06:48:48.038Z,500.63
2018-05-03T06:49:48.062Z,506.25
2018-05-03T06:50:48.083Z,517.50
2018-05-03T06:51:48.111Z,511.88
2018-05-03T06:52:48.139Z,511.88
2018-05-03T06:53:48.158Z,517.50
2018-05-03T06:54:48.179Z,517.50
2018-05-03T06:55:48.203Z,511.88
2018-05-03T06:56:48.228Z,517.50
2018-05-03T06:57:48.253Z,517.50
2018-05-03T06:58:48.274Z,517.50
2018-05-03T06:59:48.298Z,517.50
2018-05-03T07:00:48.324Z,523.13
2018-05-03T07:01:48.352Z,523.13
2018-05-03T07:02:48.367Z,528.75
2018-05-03T07:03:48.396Z,523.13
2018-05-03T07:04:48.424Z,517.50
2018-05-03T07:05:48.442Z,523.13
2018-05-03T07:06:48.461Z,517.50
2018-05-03T07:07:48.491Z,517.50
2018-05-03T07:08:48.512Z,517.50
2018-05-03T07:09:48.584Z,517.50
2018-05-03T07:10:48.563Z,517.50
2018-05-03T07:11:48.584Z,517.50
2018-05-03T07:12:48.611Z,523.13
2018-05-03T07:13:48.632Z,523.13
2018-05-03T07:14:48.658Z,517.50
2018-05-03T07:15:48.692Z,511.88
2018-05-03T07:16:48.712Z,517.50
2018-05-03T07:17:48.730Z,511.88
2018-05-03T07:18:48.756Z,517.50
2018-05-03T07:19:48.778Z,517.50
2018-05-03T07:20:48.797Z,528.75
2018-05-03T07:21:48.835Z,523.13
2018-05-03T07:22:48.848Z,511.88
2018-05-03T07:23:48.899Z,517.50
2018-05-03T07:24:48.893Z,528.75
2018-05-03T07:25:48.925Z,540.00
2018-05-03T07:26:48.945Z,528.75
2018-05-03T07:27:48.968Z,523.13
2018-05-03T07:28:48.993Z,517.50
2018-05-03T07:29:49.019Z,511.88
2018-05-03T07:30:49.039Z,511.88
2018-05-03T07:31:49.063Z,500.63
2018-05-03T07:32:49.088Z,506.25
2018-05-03T07:33:49.116Z,495.00
2018-05-03T07:34:49.146Z,489.38
2018-05-03T07:35:49.161Z,483.75
2018-05-03T07:36:49.183Z,495.00
2018-05-03T07:37:49.205Z,500.63
2018-05-03T07:38:49.234Z,528.75
2018-05-03T07:39:49.258Z,528.75
2018-05-03T07:40:49.347Z,528.75
2018-05-03T07:41:49.301Z,540.00
2018-05-03T07:42:49.327Z,556.88
2018-05-03T07:43:49.386Z,545.63
2018-05-03T07:44:49.371Z,528.75
2018-05-03T07:45:49.393Z,551.25
2018-05-03T07:46:49.420Z,540.00
2018-05-03T07:47:49.442Z,528.75
2018-05-03T07:48:49.465Z,534.38
2018-05-03T07:49:49.503Z,511.88
2018-05-03T07:50:49.519Z,523.13
2018-05-03T07:51:49.552Z,523.13
2018-05-03T07:52:49.561Z,534.38
2018-05-03T07:53:49.591Z,523.13
2018-05-03T07:54:49.612Z,528.75
2018-05-03T07:55:49.640Z,511.88
2018-05-03T07:56:49.664Z,495.00
2018-05-03T07:57:49.685Z,483.75
2018-05-03T07:58:49.714Z,472.50
2018-05-03T07:59:49.732Z,483.75
2018-05-03T08:00:49.758Z,483.75
2018-05-03T08:01:49.781Z,466.88
2018-05-03T08:02:49.805Z,455.63
2018-05-03T08:03:49.830Z,466.88
2018-05-03T08:04:49.851Z,478.13
2018-05-03T08:05:49.881Z,472.50
2018-05-03T08:06:49.905Z,461.25
2018-05-03T08:07:49.923Z,455.63
2018-05-03T08:08:49.944Z,438.75
2018-05-03T08:09:49.970Z,421.88
2018-05-03T08:10:49.990Z,421.88
2018-05-03T08:11:50.016Z,427.50
2018-05-03T08:12:50.045Z,438.75
2018-05-03T08:13:50.065Z,438.75
2018-05-03T08:14:50.088Z,433.13
2018-05-03T08:15:50.131Z,433.13
2018-05-03T08:16:50.135Z,421.88
2018-05-03T08:17:50.159Z,427.50
2018-05-03T08:18:50.185Z,421.88
2018-05-03T08:19:50.204Z,421.88
2018-05-03T08:20:50.233Z,427.50
2018-05-03T08:21:50.253Z,433.13
2018-05-03T08:22:50.276Z,444.38
2018-05-03T08:23:50.306Z,444.38
2018-05-03T08:24:50.328Z,438.75
2018-05-03T08:25:50.352Z,433.13
2018-05-03T08:26:50.377Z,427.50
2018-05-03T08:27:50.394Z,433.13
2018-05-03T08:28:50.426Z,427.50
2018-05-03T08:29:50.450Z,438.75
2018-05-03T08:30:50.469Z,433.13
2018-05-03T08:31:50.579Z,433.13
2018-05-03T08:32:50.515Z,438.75
2018-05-03T08:33:50.537Z,444.38
2018-05-03T08:34:50.569Z,444.38
2018-05-03T08:35:50.591Z,455.63
2018-05-03T08:36:50.617Z,461.25
2018-05-03T08:37:50.635Z,444.38
2018-05-03T08:38:50.658Z,438.75
2018-05-03T08:39:50.684Z,444.38
2018-05-03T08:40:50.712Z,450.00
2018-05-03T08:41:50.729Z,483.75
2018-05-03T08:42:50.757Z,495.00
2018-05-03T08:43:50.780Z,438.75
2018-05-03T08:44:50.798Z,416.25
2018-05-03T08:45:50.827Z,461.25
2018-05-03T08:46:50.850Z,433.13
2018-05-03T08:47:50.877Z,438.75
2018-05-03T08:48:50.901Z,405.00
2018-05-03T08:49:50.922Z,427.50
2018-05-03T08:50:50.943Z,438.75
2018-05-03T08:51:50.969Z,472.50
2018-05-03T08:52:50.996Z,450.00
2018-05-03T08:53:51.018Z,405.00
2018-05-03T08:54:51.042Z,466.88
2018-05-03T08:55:51.142Z,483.75
2018-05-03T08:56:51.090Z,483.75
2018-05-03T08:57:51.122Z,489.38
2018-05-03T08:58:51.136Z,483.75
2018-05-03T08:59:51.165Z,455.63
2018-05-03T09:00:51.190Z,455.63
2018-05-03T09:01:51.240Z,438.75
2018-05-03T09:02:51.228Z,450.00
2018-05-03T09:03:51.257Z,455.63
2018-05-03T09:04:51.280Z,466.88
2018-05-03T09:05:51.310Z,472.50
2018-05-03T09:06:51.324Z,472.50
2018-05-03T09:07:51.448Z,483.75
2018-05-03T09:08:51.374Z,500.63
2018-05-03T09:09:51.404Z,556.88
2018-05-03T09:10:51.427Z,573.75
2018-05-03T09:11:51.452Z,506.25
2018-05-03T09:12:51.482Z,466.88
2018-05-03T09:13:51.497Z,562.50
2018-05-03T09:14:51.516Z,573.75
2018-05-03T09:15:51.543Z,540.00
2018-05-03T09:16:51.566Z,489.38
2018-05-03T09:17:51.593Z,517.50
2018-05-03T09:18:51.621Z,568.13
2018-05-03T09:19:51.637Z,573.75
2018-05-03T09:20:51.662Z,545.63
2018-05-03T09:21:51.692Z,517.50
2018-05-03T09:22:51.709Z,495.00
2018-05-03T09:23:51.737Z,455.63
2018-05-03T09:24:51.766Z,500.63
2018-05-03T09:25:51.793Z,495.00
2018-05-03T09:26:51.845Z,478.13
2018-05-03T09:27:51.839Z,540.00
2018-05-03T09:28:51.856Z,545.63
2018-05-03T09:29:51.883Z,517.50
2018-05-03T09:30:51.911Z,511.88
2018-05-03T09:31:51.933Z,489.38
2018-05-03T09:32:51.958Z,545.63
2018-05-03T09:33:51.984Z,545.63
2018-05-03T09:34:52.008Z,528.75
2018-05-03T09:35:52.032Z,534.38
2018-05-03T09:36:52.050Z,556.88
2018-05-03T09:37:52.078Z,556.88
2018-05-03T09:38:52.106Z,551.25
2018-05-03T09:39:52.130Z,545.63
2018-05-03T09:40:52.152Z,551.25
2018-05-03T09:41:52.178Z,568.13
2018-05-03T09:42:52.200Z,585.00
2018-05-03T09:43:52.225Z,540.00
2018-05-03T09:44:52.320Z,511.88
2018-05-03T09:45:52.274Z,511.88
2018-05-03T09:46:52.298Z,545.63
2018-05-03T09:47:52.325Z,562.50
2018-05-03T09:48:52.344Z,551.25
2018-05-03T09:49:52.378Z,556.88
2018-05-03T09:50:52.400Z,562.50
2018-05-03T09:51:52.425Z,545.63
2018-05-03T09:52:52.450Z,568.13
2018-05-03T09:53:52.476Z,573.75
2018-05-03T09:54:52.494Z,585.00
2018-05-03T09:55:52.524Z,590.63
2018-05-03T09:56:52.548Z,596.25
2018-05-03T09:57:52.569Z,596.25
2018-05-03T09:58:52.602Z,596.25
2018-05-03T09:59:52.634Z,596.25
2018-05-03T10:00:52.643Z,618.75
2018-05-03T10:01:52.673Z,630.00
2018-05-03T10:02:52.689Z,646.88
2018-05-03T10:03:52.719Z,641.25
2018-05-03T10:04:52.831Z,607.50
2018-05-03T10:05:52.767Z,579.38
2018-05-03T10:06:52.795Z,573.75
2018-05-03T10:07:52.828Z,562.50
2018-05-03T10:08:52.839Z,551.25
2018-05-03T10:09:52.865Z,556.88
2018-05-03T10:10:52.893Z,624.38
2018-05-03T10:11:52.922Z,613.13
2018-05-03T10:12:52.939Z,624.38
2018-05-03T10:13:52.973Z,691.88
2018-05-03T10:14:52.988Z,708.75
2018-05-03T10:15:53.013Z,725.63
2018-05-03T10:16:53.039Z,714.38
2018-05-03T10:17:53.068Z,748.13
2018-05-03T10:18:53.099Z,765.00
2018-05-03T10:19:53.120Z,781.88
2018-05-03T10:20:53.144Z,826.88
2018-05-03T10:21:53.170Z,871.88
2018-05-03T10:22:53.192Z,883.13
2018-05-03T10:23:53.232Z,871.88
2018-05-03T10:24:53.243Z,939.38
2018-05-03T10:25:53.271Z,1001.25
2018-05-03T10:26:53.291Z,1023.75
2018-05-03T10:27:53.322Z,905.63
2018-05-03T10:28:53.347Z,961.88
2018-05-03T10:29:53.404Z,1051.88
2018-05-03T10:30:53.394Z,1068.75
2018-05-03T10:31:53.419Z,1040.63
2018-05-03T10:32:53.449Z,1051.88
2018-05-03T10:33:53.475Z,1074.38
2018-05-03T10:34:53.495Z,1001.25
2018-05-03T10:35:53.647Z,1063.13
2018-05-03T10:36:53.553Z,1068.75
2018-05-03T10:37:53.573Z,1057.50
2018-05-03T10:38:53.606Z,1051.88
2018-05-03T10:39:53.634Z,1085.63
2018-05-03T10:40:53.655Z,1074.38
2018-05-03T10:41:53.727Z,1096.88
2018-05-03T10:42:53.709Z,1125.00
2018-05-03T10:43:53.729Z,1164.38
2018-05-03T10:44:53.767Z,1271.25
2018-05-03T10:45:53.783Z,1361.25
2018-05-03T10:46:53.812Z,1389.38
2018-05-03T10:47:53.841Z,1423.13
2018-05-03T10:48:53.875Z,1411.88
2018-05-03T10:49:53.896Z,1389.38
2018-05-03T10:50:53.921Z,1451.25
2018-05-03T10:51:53.945Z,1445.63
2018-05-03T10:52:53.972Z,1411.88
2018-05-03T10:53:53.998Z,1417.50
2018-05-03T10:54:54.022Z,1411.88
2018-05-03T10:55:54.055Z,1631.25
2018-05-03T10:56:54.077Z,1597.50
2018-05-03T10:57:54.108Z,2058.75
2018-05-03T10:58:54.133Z,2446.88
2018-05-03T10:59:54.170Z,2486.25
2018-05-03T11:00:54.186Z,2385.00
2018-05-03T11:01:54.216Z,1850.63
2018-05-03T11:02:54.242Z,1805.63
2018-05-03T11:03:54.279Z,1963.13
2018-05-03T11:04:54.305Z,1935.00
2018-05-03T11:05:54.335Z,1929.38
2018-05-03T11:06:54.359Z,1687.50
2018-05-03T11:07:54.394Z,1906.88
2018-05-03T11:08:54.414Z,2120.63
2018-05-03T11:09:54.440Z,2486.25
2018-05-03T11:10:54.470Z,2542.50
2018-05-03T11:11:54.500Z,2345.63
2018-05-03T11:12:54.526Z,2070.00
2018-05-03T11:13:54.556Z,2548.13
2018-05-03T11:14:54.594Z,2385.00
2018-05-03T11:15:54.617Z,2154.38
2018-05-03T11:16:54.647Z,2323.13
2018-05-03T11:17:54.687Z,2328.75
2018-05-03T11:18:54.700Z,1906.88
2018-05-03T11:19:54.731Z,1996.88
2018-05-03T11:20:54.763Z,2306.25
2018-05-03T11:21:54.793Z,2385.00
2018-05-03T11:22:54.829Z,2244.38
2018-05-03T11:23:54.849Z,1991.25
2018-05-03T11:24:54.880Z,1822.50
2018-05-03T11:25:54.986Z,2255.63
2018-05-03T11:26:54.939Z,2655.00
2018-05-03T11:27:54.973Z,1766.25
2018-05-03T11:28:55.004Z,1726.88
2018-05-03T11:29:55.035Z,2767.50
2018-05-03T11:30:55.070Z,2092.50
2018-05-03T11:31:55.096Z,2070.00
2018-05-03T11:32:55.125Z,2199.38
2018-05-03T11:33:55.153Z,2520.00
2018-05-03T11:34:55.191Z,2441.25
2018-05-03T11:35:55.215Z,2407.50
2018-05-03T11:36:55.249Z,3093.75
2018-05-03T11:37:55.281Z,3628.13
2018-05-03T11:38:55.307Z,2649.38
2018-05-03T11:39:55.334Z,4145.63
2018-05-03T11:40:55.364Z,3780.00
2018-05-03T11:41:55.403Z,2745.00
2018-05-03T11:42:55.433Z,3723.75
2018-05-03T11:43:55.459Z,4511.25
2018-05-03T11:44:55.495Z,4106.25
2018-05-03T11:45:55.522Z,3133.13
2018-05-03T11:46:55.634Z,2351.25
2018-05-03T11:47:55.589Z,3195.00
2018-05-03T11:48:55.620Z,3121.88
2018-05-03T11:49:55.655Z,3588.75
2018-05-03T11:50:55.684Z,4235.63
2018-05-03T11:51:55.717Z,4066.88
2018-05-03T11:52:55.761Z,3071.25
2018-05-03T11:53:55.778Z,4016.25
2018-05-03T11:54:55.817Z,3808.13
2018-05-03T11:55:55.843Z,4235.63
2018-05-03T11:56:55.886Z,3178.13
2018-05-03T11:57:55.915Z,2716.88
2018-05-03T11:58:55.944Z,2008.13
2018-05-03T11:59:55.987Z,2525.63
2018-05-03T12:00:56.011Z,3808.13
2018-05-03T12:01:56.044Z,3172.50
2018-05-03T12:02:56.079Z,3009.38
2018-05-03T12:03:56.114Z,2953.13
2018-05-03T12:04:56.144Z,2728.13
2018-05-03T12:05:56.221Z,2221.88
2018-05-03T12:06:56.208Z,1940.63
2018-05-03T12:07:56.241Z,2199.38
2018-05-03T12:08:56.272Z,2610.00
2018-05-03T12:09:56.312Z,3352.50
2018-05-03T12:10:56.342Z,2548.13
2018-05-03T12:11:56.380Z,2660.63
2018-05-03T12:12:56.409Z,2790.00
2018-05-03T12:13:56.441Z,3802.50
2018-05-03T12:14:56.467Z,4027.50
2018-05-03T12:15:56.502Z,4218.75
2018-05-03T12:16:56.537Z,3425.63
2018-05-03T12:17:56.566Z,3060.00
2018-05-03T12:18:56.602Z,2728.13
2018-05-03T12:19:56.637Z,2750.63
2018-05-03T12:20:56.671Z,3285.00
2018-05-03T12:21:56.708Z,3453.75
2018-05-03T12:22:56.735Z,3301.88
2018-05-03T12:23:56.770Z,2953.13
2018-05-03T12:24:56.800Z,4303.13
2018-05-03T12:25:56.833Z,4916.25
2018-05-03T12:26:56.870Z,4651.88
2018-05-03T12:27:56.899Z,2913.75
2018-05-03T12:28:56.940Z,2913.75
2018-05-03T12:29:56.967Z,3127.50
2018-05-03T12:30:57.004Z,2120.63
2018-05-03T12:31:57.036Z,4353.75
2018-05-03T12:32:57.071Z,5056.88
2018-05-03T12:33:57.103Z,2970.00
2018-05-03T12:34:57.164Z,1170.00
2018-05-03T12:35:57.171Z,1293.75
2018-05-03T12:36:57.210Z,1395.00
2018-05-03T12:37:57.238Z,5636.25
2018-05-03T12:38:57.273Z,5675.63
2018-05-03T12:39:57.307Z,4826.25